Airfield :
LOGIN :

Register | Disclaimer

   EN    FR    IT 

 










Legend :    VFR   Marginal VFR   IFR   Intensive IFR   Very Intensive IFR
Visi :
Ceiling :
>= 8 km
>= 3000ft
5 to 8 km
1000 to 3000 ft
1500m to 5 km
500 to 1000 ft
800 to 1500m
200 to 500 ft
< 800m
< 200 ft
Symbols :   Thunderstorms  Fog  Heavy snow  Heavy precipitations  Wind > 20 kt
SIGMETs :     Misc.  Thunderstorms  Icing  Turbulence  Mountain Waves  Volcanic Ashes







- Airport Elevation : -15 ft
- IATA code : RTM


EHRD - Rotterdam Zestienhoven

CURRENT METAR :
  • 181555Z AUTO 24007KT 9999 NSC 12/08 Q1014 NOSIG

EXPIRED METARs :
  • 181525Z AUTO 23006KT 9999 NSC 13/09 Q1014 NOSIG
  • 181455Z AUTO 22007KT 190V250 9999 NSC 13/09 Q1014 NOSIG
  • 181425Z AUTO 23007KT 200V260 9999 NSC 13/09 Q1015 NOSIG
  • 181355Z AUTO 22008KT 200V270 9999 FEW028 SCT031 13/09 Q1015 NOSIG
  • 181325Z AUTO 21008KT 180V240 9999 FEW022 14/09 Q1015 NOSIG

TAF TAF EHRD
Valid from the 18 at 12:00 until the 19 at 18:00 UTC


181109Z 1812/1918 20008KT CAVOK
BECMG 1821/1822 7000 RA SCT018 BKN025
PROB30
TEMPO 1822/1901 4500 -RADZ BR SCT008 BKN014
BECMG 1900/1903 24012KT 9999 NSW
PROB30 1907/1912 SCT007 BKN012
TEMPO 1909/1915 25017KT
No reported NOTAMs for that airfield.



MET'MAP, your aeronautical weather chart ! - Copyright ORBIFLY December 2007 - Disclaimer

ORBIFLY MET'MAP TEAM :

Programming & Development : Alexandra Zaïnal
Concept & Development : Baudouin d'Aumeries
Co-Development & Prog : Marc-Olivier Méhu
Technical & hardware support : Manuel Goepfert

Contact : metmap@orbifly.com




SOURCES & CREDITS :

   NOAA